sensor_id;sensor_type;location;lat;lon;timestamp;P1;durP1;ratioP1;P2;durP2;ratioP2
44480;SDS011;30184;42.018;23.670;2023-04-24T00:00:48;21.80;;;13.90;;
44480;SDS011;30184;42.018;23.670;2023-04-24T00:03:18;21.98;;;13.27;;
44480;SDS011;30184;42.018;23.670;2023-04-24T00:05:48;21.77;;;13.40;;
44480;SDS011;30184;42.018;23.670;2023-04-24T00:08:18;19.83;;;13.65;;
44480;SDS011;30184;42.018;23.670;2023-04-24T00:10:48;21.60;;;13.68;;
44480;SDS011;30184;42.018;23.670;2023-04-24T00:13:18;24.02;;;14.38;;
44480;SDS011;30184;42.018;23.670;2023-04-24T00:15:49;32.45;;;16.38;;
44480;SDS011;30184;42.018;23.670;2023-04-24T00:18:19;34.00;;;18.13;;
44480;SDS011;30184;42.018;23.670;2023-04-24T00:20:48;32.55;;;17.15;;
44480;SDS011;30184;42.018;23.670;2023-04-24T00:23:18;35.70;;;18.27;;
44480;SDS011;30184;42.018;23.670;2023-04-24T00:25:48;28.30;;;15.07;;
44480;SDS011;30184;42.018;23.670;2023-04-24T00:28:18;25.88;;;14.30;;
44480;SDS011;30184;42.018;23.670;2023-04-24T00:30:49;24.45;;;14.52;;
44480;SDS011;30184;42.018;23.670;2023-04-24T00:33:19;26.88;;;15.05;;
44480;SDS011;30184;42.018;23.670;2023-04-24T00:35:48;19.85;;;12.27;;
44480;SDS011;30184;42.018;23.670;2023-04-24T00:38:18;15.55;;;10.18;;
44480;SDS011;30184;42.018;23.670;2023-04-24T00:40:49;16.42;;;10.13;;
44480;SDS011;30184;42.018;23.670;2023-04-24T00:43:19;20.65;;;11.60;;
44480;SDS011;30184;42.018;23.670;2023-04-24T00:45:50;48.30;;;21.65;;
44480;SDS011;30184;42.018;23.670;2023-04-24T00:48:20;27.42;;;14.95;;
44480;SDS011;30184;42.018;23.670;2023-04-24T00:50:50;20.27;;;13.48;;
44480;SDS011;30184;42.018;23.670;2023-04-24T00:53:19;19.42;;;13.50;;
44480;SDS011;30184;42.018;23.670;2023-04-24T00:55:49;18.73;;;12.68;;
44480;SDS011;30184;42.018;23.670;2023-04-24T00:58:20;20.10;;;13.80;;
44480;SDS011;30184;42.018;23.670;2023-04-24T01:00:52;23.08;;;14.02;;
44480;SDS011;30184;42.018;23.670;2023-04-24T01:03:24;25.88;;;16.15;;
44480;SDS011;30184;42.018;23.670;2023-04-24T01:05:55;30.98;;;17.15;;
44480;SDS011;30184;42.018;23.670;2023-04-24T01:08:25;23.52;;;14.23;;
44480;SDS011;30184;42.018;23.670;2023-04-24T01:10:57;18.75;;;11.45;;
44480;SDS011;30184;42.018;23.670;2023-04-24T01:13:27;19.33;;;12.65;;
44480;SDS011;30184;42.018;23.670;2023-04-24T01:15:58;19.27;;;11.00;;
44480;SDS011;30184;42.018;23.670;2023-04-24T01:18:28;22.00;;;12.30;;
44480;SDS011;30184;42.018;23.670;2023-04-24T01:20:58;26.23;;;14.73;;
44480;SDS011;30184;42.018;23.670;2023-04-24T01:23:34;21.85;;;14.52;;
44480;SDS011;30184;42.018;23.670;2023-04-24T01:26:04;22.58;;;13.75;;
44480;SDS011;30184;42.018;23.670;2023-04-24T01:28:34;23.38;;;12.52;;
44480;SDS011;30184;42.018;23.670;2023-04-24T01:31:05;23.05;;;12.65;;
44480;SDS011;30184;42.018;23.670;2023-04-24T01:33:35;21.15;;;13.35;;
44480;SDS011;30184;42.018;23.670;2023-04-24T01:36:05;17.98;;;12.55;;
44480;SDS011;30184;42.018;23.670;2023-04-24T01:38:37;19.08;;;11.52;;
44480;SDS011;30184;42.018;23.670;2023-04-24T01:41:07;17.98;;;12.23;;
44480;SDS011;30184;42.018;23.670;2023-04-24T01:43:38;22.35;;;11.73;;
44480;SDS011;30184;42.018;23.670;2023-04-24T01:46:08;22.33;;;11.90;;
44480;SDS011;30184;42.018;23.670;2023-04-24T01:48:39;17.33;;;10.60;;
44480;SDS011;30184;42.018;23.670;2023-04-24T01:51:09;20.75;;;11.18;;
44480;SDS011;30184;42.018;23.670;2023-04-24T01:53:40;20.55;;;12.80;;
44480;SDS011;30184;42.018;23.670;2023-04-24T01:56:09;17.52;;;11.93;;
44480;SDS011;30184;42.018;23.670;2023-04-24T01:58:39;17.55;;;12.18;;
44480;SDS011;30184;42.018;23.670;2023-04-24T02:01:10;21.27;;;12.65;;
44480;SDS011;30184;42.018;23.670;2023-04-24T02:03:44;19.05;;;12.63;;
44480;SDS011;30184;42.018;23.670;2023-04-24T02:06:13;20.48;;;12.25;;
44480;SDS011;30184;42.018;23.670;2023-04-24T02:08:45;18.30;;;11.73;;
44480;SDS011;30184;42.018;23.670;2023-04-24T02:11:14;17.98;;;12.38;;
44480;SDS011;30184;42.018;23.670;2023-04-24T02:13:45;22.13;;;15.18;;
44480;SDS011;30184;42.018;23.670;2023-04-24T02:16:14;25.20;;;15.70;;
44480;SDS011;30184;42.018;23.670;2023-04-24T02:18:44;16.92;;;11.52;;
44480;SDS011;30184;42.018;23.670;2023-04-24T02:21:14;20.15;;;12.00;;
44480;SDS011;30184;42.018;23.670;2023-04-24T02:23:45;15.43;;;10.15;;
44480;SDS011;30184;42.018;23.670;2023-04-24T02:26:15;18.65;;;10.77;;
44480;SDS011;30184;42.018;23.670;2023-04-24T02:28:45;16.55;;;11.50;;
44480;SDS011;30184;42.018;23.670;2023-04-24T02:31:15;18.27;;;11.88;;
44480;SDS011;30184;42.018;23.670;2023-04-24T02:33:47;16.35;;;10.50;;
44480;SDS011;30184;42.018;23.670;2023-04-24T02:36:17;16.30;;;10.15;;
44480;SDS011;30184;42.018;23.670;2023-04-24T02:38:49;12.32;;;8.00;;
44480;SDS011;30184;42.018;23.670;2023-04-24T02:41:19;17.33;;;11.27;;
44480;SDS011;30184;42.018;23.670;2023-04-24T02:43:48;20.58;;;14.07;;
44480;SDS011;30184;42.018;23.670;2023-04-24T02:46:17;21.90;;;14.00;;
44480;SDS011;30184;42.018;23.670;2023-04-24T02:48:47;26.25;;;16.55;;
44480;SDS011;30184;42.018;23.670;2023-04-24T02:51:17;26.70;;;16.60;;
44480;SDS011;30184;42.018;23.670;2023-04-24T02:53:46;27.10;;;16.90;;
44480;SDS011;30184;42.018;23.670;2023-04-24T02:56:18;25.33;;;16.25;;
44480;SDS011;30184;42.018;23.670;2023-04-24T02:58:47;41.45;;;23.65;;
44480;SDS011;30184;42.018;23.670;2023-04-24T03:01:16;26.17;;;16.13;;
44480;SDS011;30184;42.018;23.670;2023-04-24T03:03:47;22.65;;;14.93;;
44480;SDS011;30184;42.018;23.670;2023-04-24T03:06:17;25.30;;;15.75;;
44480;SDS011;30184;42.018;23.670;2023-04-24T03:08:46;41.63;;;21.52;;
44480;SDS011;30184;42.018;23.670;2023-04-24T03:11:18;33.08;;;19.80;;
44480;SDS011;30184;42.018;23.670;2023-04-24T03:13:47;35.80;;;21.58;;
44480;SDS011;30184;42.018;23.670;2023-04-24T03:16:17;33.58;;;20.80;;
44480;SDS011;30184;42.018;23.670;2023-04-24T03:18:47;33.80;;;18.88;;
44480;SDS011;30184;42.018;23.670;2023-04-24T03:21:16;33.53;;;18.63;;
44480;SDS011;30184;42.018;23.670;2023-04-24T03:23:46;28.10;;;17.58;;
44480;SDS011;30184;42.018;23.670;2023-04-24T03:26:15;22.67;;;14.80;;
44480;SDS011;30184;42.018;23.670;2023-04-24T03:29:02;22.00;;;14.25;;
44480;SDS011;30184;42.018;23.670;2023-04-24T03:31:31;23.27;;;13.25;;
44480;SDS011;30184;42.018;23.670;2023-04-24T03:34:01;26.15;;;14.32;;
44480;SDS011;30184;42.018;23.670;2023-04-24T03:36:31;24.75;;;16.10;;
44480;SDS011;30184;42.018;23.670;2023-04-24T03:39:03;40.20;;;23.77;;
44480;SDS011;30184;42.018;23.670;2023-04-24T03:41:36;38.45;;;23.98;;
44480;SDS011;30184;42.018;23.670;2023-04-24T03:44:12;39.58;;;24.50;;
44480;SDS011;30184;42.018;23.670;2023-04-24T03:46:42;29.50;;;18.70;;
44480;SDS011;30184;42.018;23.670;2023-04-24T03:49:12;46.42;;;22.30;;
44480;SDS011;30184;42.018;23.670;2023-04-24T03:51:45;36.15;;;21.70;;
44480;SDS011;30184;42.018;23.670;2023-04-24T03:54:19;38.58;;;21.25;;
44480;SDS011;30184;42.018;23.670;2023-04-24T03:56:52;36.15;;;21.23;;
44480;SDS011;30184;42.018;23.670;2023-04-24T03:59:24;32.50;;;19.02;;
44480;SDS011;30184;42.018;23.670;2023-04-24T04:02:07;31.75;;;18.90;;
44480;SDS011;30184;42.018;23.670;2023-04-24T04:04:37;25.90;;;18.13;;
44480;SDS011;30184;42.018;23.670;2023-04-24T04:07:07;24.10;;;17.63;;
44480;SDS011;30184;42.018;23.670;2023-04-24T04:09:37;31.45;;;20.15;;
44480;SDS011;30184;42.018;23.670;2023-04-24T04:12:08;26.60;;;16.70;;
44480;SDS011;30184;42.018;23.670;2023-04-24T04:14:38;23.98;;;15.32;;
44480;SDS011;30184;42.018;23.670;2023-04-24T04:17:08;20.73;;;14.63;;
44480;SDS011;30184;42.018;23.670;2023-04-24T04:19:38;28.58;;;15.52;;
44480;SDS011;30184;42.018;23.670;2023-04-24T04:22:08;23.08;;;15.30;;
44480;SDS011;30184;42.018;23.670;2023-04-24T04:24:42;21.67;;;14.07;;
44480;SDS011;30184;42.018;23.670;2023-04-24T04:27:13;24.30;;;15.70;;
44480;SDS011;30184;42.018;23.670;2023-04-24T04:29:50;38.90;;;20.23;;
44480;SDS011;30184;42.018;23.670;2023-04-24T04:32:20;22.00;;;14.48;;
44480;SDS011;30184;42.018;23.670;2023-04-24T04:34:49;20.67;;;13.38;;
44480;SDS011;30184;42.018;23.670;2023-04-24T04:37:22;21.65;;;13.52;;
44480;SDS011;30184;42.018;23.670;2023-04-24T04:40:03;20.42;;;13.48;;
44480;SDS011;30184;42.018;23.670;2023-04-24T04:42:41;26.70;;;18.02;;
44480;SDS011;30184;42.018;23.670;2023-04-24T04:45:14;28.58;;;17.75;;
44480;SDS011;30184;42.018;23.670;2023-04-24T04:48:05;36.92;;;23.05;;
44480;SDS011;30184;42.018;23.670;2023-04-24T04:50:37;45.90;;;26.60;;
44480;SDS011;30184;42.018;23.670;2023-04-24T04:53:07;36.95;;;23.17;;
44480;SDS011;30184;42.018;23.670;2023-04-24T04:55:38;38.65;;;24.38;;
44480;SDS011;30184;42.018;23.670;2023-04-24T04:58:16;44.05;;;34.45;;
44480;SDS011;30184;42.018;23.670;2023-04-24T05:00:47;44.15;;;26.63;;
44480;SDS011;30184;42.018;23.670;2023-04-24T05:03:30;36.97;;;23.80;;
44480;SDS011;30184;42.018;23.670;2023-04-24T05:06:05;26.77;;;17.08;;
44480;SDS011;30184;42.018;23.670;2023-04-24T05:08:37;21.63;;;14.45;;
44480;SDS011;30184;42.018;23.670;2023-04-24T05:11:18;24.67;;;16.55;;
44480;SDS011;30184;42.018;23.670;2023-04-24T05:13:53;23.70;;;15.80;;
44480;SDS011;30184;42.018;23.670;2023-04-24T05:16:31;31.13;;;13.93;;
44480;SDS011;30184;42.018;23.670;2023-04-24T05:19:01;25.58;;;16.02;;
44480;SDS011;30184;42.018;23.670;2023-04-24T05:21:36;23.13;;;13.32;;
44480;SDS011;30184;42.018;23.670;2023-04-24T05:24:07;27.38;;;16.88;;
44480;SDS011;30184;42.018;23.670;2023-04-24T05:26:49;41.10;;;24.02;;
44480;SDS011;30184;42.018;23.670;2023-04-24T05:29:25;24.45;;;14.32;;
44480;SDS011;30184;42.018;23.670;2023-04-24T05:31:55;24.13;;;14.85;;
44480;SDS011;30184;42.018;23.670;2023-04-24T05:34:25;29.88;;;19.35;;
44480;SDS011;30184;42.018;23.670;2023-04-24T05:36:56;25.23;;;15.07;;
44480;SDS011;30184;42.018;23.670;2023-04-24T05:39:26;16.23;;;11.80;;
44480;SDS011;30184;42.018;23.670;2023-04-24T05:41:56;36.53;;;21.27;;
44480;SDS011;30184;42.018;23.670;2023-04-24T05:44:27;58.35;;;30.70;;
44480;SDS011;30184;42.018;23.670;2023-04-24T05:46:58;32.47;;;16.55;;
44480;SDS011;30184;42.018;23.670;2023-04-24T05:49:29;29.23;;;18.55;;
44480;SDS011;30184;42.018;23.670;2023-04-24T05:51:59;32.33;;;20.40;;
44480;SDS011;30184;42.018;23.670;2023-04-24T05:54:29;29.60;;;19.48;;
44480;SDS011;30184;42.018;23.670;2023-04-24T05:56:59;63.50;;;37.97;;
44480;SDS011;30184;42.018;23.670;2023-04-24T05:59:46;49.65;;;27.40;;
44480;SDS011;30184;42.018;23.670;2023-04-24T06:02:17;139.65;;;88.20;;
44480;SDS011;30184;42.018;23.670;2023-04-24T06:04:46;37.20;;;21.20;;
44480;SDS011;30184;42.018;23.670;2023-04-24T06:07:17;42.35;;;22.50;;
44480;SDS011;30184;42.018;23.670;2023-04-24T06:09:47;36.58;;;23.55;;
44480;SDS011;30184;42.018;23.670;2023-04-24T06:12:17;25.02;;;16.05;;
44480;SDS011;30184;42.018;23.670;2023-04-24T06:14:59;29.45;;;15.52;;
44480;SDS011;30184;42.018;23.670;2023-04-24T06:17:49;23.58;;;15.25;;
44480;SDS011;30184;42.018;23.670;2023-04-24T06:20:20;23.27;;;15.07;;
44480;SDS011;30184;42.018;23.670;2023-04-24T06:22:50;19.55;;;13.43;;
44480;SDS011;30184;42.018;23.670;2023-04-24T06:25:20;28.05;;;16.90;;
44480;SDS011;30184;42.018;23.670;2023-04-24T06:27:50;18.85;;;13.32;;
44480;SDS011;30184;42.018;23.670;2023-04-24T06:30:22;19.90;;;15.07;;
44480;SDS011;30184;42.018;23.670;2023-04-24T06:32:52;24.48;;;16.88;;
44480;SDS011;30184;42.018;23.670;2023-04-24T06:35:22;20.35;;;14.00;;
44480;SDS011;30184;42.018;23.670;2023-04-24T06:37:51;23.25;;;14.60;;
44480;SDS011;30184;42.018;23.670;2023-04-24T06:40:23;19.67;;;13.27;;
44480;SDS011;30184;42.018;23.670;2023-04-24T06:42:52;14.20;;;9.45;;
44480;SDS011;30184;42.018;23.670;2023-04-24T06:45:23;13.80;;;9.43;;
44480;SDS011;30184;42.018;23.670;2023-04-24T06:47:52;20.88;;;9.55;;
44480;SDS011;30184;42.018;23.670;2023-04-24T06:50:21;11.02;;;7.65;;
44480;SDS011;30184;42.018;23.670;2023-04-24T06:52:50;14.43;;;7.82;;
44480;SDS011;30184;42.018;23.670;2023-04-24T06:55:21;11.05;;;7.90;;
44480;SDS011;30184;42.018;23.670;2023-04-24T06:57:51;12.23;;;8.70;;
44480;SDS011;30184;42.018;23.670;2023-04-24T07:00:24;13.85;;;10.40;;
44480;SDS011;30184;42.018;23.670;2023-04-24T07:02:53;80.03;;;35.95;;
44480;SDS011;30184;42.018;23.670;2023-04-24T07:05:22;26.77;;;13.75;;
44480;SDS011;30184;42.018;23.670;2023-04-24T07:07:52;63.22;;;29.20;;
44480;SDS011;30184;42.018;23.670;2023-04-24T07:10:21;24.50;;;14.15;;
44480;SDS011;30184;42.018;23.670;2023-04-24T07:12:50;52.22;;;26.13;;
44480;SDS011;30184;42.018;23.670;2023-04-24T07:15:19;10.65;;;7.95;;
44480;SDS011;30184;42.018;23.670;2023-04-24T07:17:50;27.67;;;14.60;;
44480;SDS011;30184;42.018;23.670;2023-04-24T07:20:19;15.50;;;8.80;;
44480;SDS011;30184;42.018;23.670;2023-04-24T07:22:49;20.25;;;11.70;;
44480;SDS011;30184;42.018;23.670;2023-04-24T07:25:19;32.13;;;17.08;;
44480;SDS011;30184;42.018;23.670;2023-04-24T07:27:48;23.33;;;12.25;;
44480;SDS011;30184;42.018;23.670;2023-04-24T07:30:17;27.02;;;13.05;;
44480;SDS011;30184;42.018;23.670;2023-04-24T07:32:47;45.88;;;22.98;;
44480;SDS011;30184;42.018;23.670;2023-04-24T07:35:17;26.35;;;14.35;;
44480;SDS011;30184;42.018;23.670;2023-04-24T07:37:47;18.80;;;10.75;;
44480;SDS011;30184;42.018;23.670;2023-04-24T07:40:16;21.30;;;9.48;;
44480;SDS011;30184;42.018;23.670;2023-04-24T07:42:46;14.48;;;8.50;;
44480;SDS011;30184;42.018;23.670;2023-04-24T07:45:15;15.23;;;9.52;;
44480;SDS011;30184;42.018;23.670;2023-04-24T07:47:45;21.63;;;10.75;;
44480;SDS011;30184;42.018;23.670;2023-04-24T07:50:19;14.63;;;9.90;;
44480;SDS011;30184;42.018;23.670;2023-04-24T07:52:49;22.17;;;9.30;;
44480;SDS011;30184;42.018;23.670;2023-04-24T07:55:19;12.05;;;8.57;;
44480;SDS011;30184;42.018;23.670;2023-04-24T07:57:50;24.35;;;13.77;;
44480;SDS011;30184;42.018;23.670;2023-04-24T08:00:20;18.85;;;7.93;;
44480;SDS011;30184;42.018;23.670;2023-04-24T08:02:49;13.77;;;7.15;;
44480;SDS011;30184;42.018;23.670;2023-04-24T08:05:20;11.02;;;7.00;;
44480;SDS011;30184;42.018;23.670;2023-04-24T08:07:49;11.23;;;7.03;;
44480;SDS011;30184;42.018;23.670;2023-04-24T08:10:19;11.63;;;7.53;;
44480;SDS011;30184;42.018;23.670;2023-04-24T08:12:49;18.80;;;7.88;;
44480;SDS011;30184;42.018;23.670;2023-04-24T08:15:19;13.38;;;7.20;;
44480;SDS011;30184;42.018;23.670;2023-04-24T08:17:48;10.43;;;6.53;;
44480;SDS011;30184;42.018;23.670;2023-04-24T08:20:17;15.18;;;7.55;;
44480;SDS011;30184;42.018;23.670;2023-04-24T08:22:48;14.40;;;6.97;;
44480;SDS011;30184;42.018;23.670;2023-04-24T08:25:17;11.82;;;6.93;;
44480;SDS011;30184;42.018;23.670;2023-04-24T08:27:47;8.95;;;6.28;;
44480;SDS011;30184;42.018;23.670;2023-04-24T08:30:16;12.98;;;6.55;;
44480;SDS011;30184;42.018;23.670;2023-04-24T08:32:45;9.05;;;6.20;;
44480;SDS011;30184;42.018;23.670;2023-04-24T08:35:14;12.07;;;6.85;;
44480;SDS011;30184;42.018;23.670;2023-04-24T08:37:44;10.48;;;7.25;;
44480;SDS011;30184;42.018;23.670;2023-04-24T08:40:14;16.55;;;10.13;;
44480;SDS011;30184;42.018;23.670;2023-04-24T08:42:45;15.77;;;8.43;;
44480;SDS011;30184;42.018;23.670;2023-04-24T08:45:14;11.13;;;7.30;;
44480;SDS011;30184;42.018;23.670;2023-04-24T08:47:43;19.38;;;9.98;;
44480;SDS011;30184;42.018;23.670;2023-04-24T08:50:12;10.68;;;6.47;;
44480;SDS011;30184;42.018;23.670;2023-04-24T08:52:42;17.73;;;9.75;;
44480;SDS011;30184;42.018;23.670;2023-04-24T08:55:13;16.92;;;9.57;;
44480;SDS011;30184;42.018;23.670;2023-04-24T08:57:44;15.55;;;7.97;;
44480;SDS011;30184;42.018;23.670;2023-04-24T09:00:17;17.17;;;8.73;;
44480;SDS011;30184;42.018;23.670;2023-04-24T09:02:48;11.57;;;7.18;;
44480;SDS011;30184;42.018;23.670;2023-04-24T09:05:18;12.80;;;7.00;;
44480;SDS011;30184;42.018;23.670;2023-04-24T09:07:53;15.95;;;7.28;;
44480;SDS011;30184;42.018;23.670;2023-04-24T09:10:25;13.55;;;6.78;;
44480;SDS011;30184;42.018;23.670;2023-04-24T09:12:58;11.35;;;6.60;;
44480;SDS011;30184;42.018;23.670;2023-04-24T09:15:29;9.43;;;5.80;;
44480;SDS011;30184;42.018;23.670;2023-04-24T09:17:59;11.60;;;5.43;;
44480;SDS011;30184;42.018;23.670;2023-04-24T09:20:29;10.18;;;5.20;;
44480;SDS011;30184;42.018;23.670;2023-04-24T09:22:58;7.85;;;5.32;;
44480;SDS011;30184;42.018;23.670;2023-04-24T09:25:32;10.23;;;5.95;;
44480;SDS011;30184;42.018;23.670;2023-04-24T09:28:03;11.43;;;4.97;;
44480;SDS011;30184;42.018;23.670;2023-04-24T09:30:34;12.25;;;6.03;;
44480;SDS011;30184;42.018;23.670;2023-04-24T09:33:10;9.25;;;4.97;;
44480;SDS011;30184;42.018;23.670;2023-04-24T09:35:40;6.90;;;5.05;;
44480;SDS011;30184;42.018;23.670;2023-04-24T09:38:11;8.45;;;5.40;;
44480;SDS011;30184;42.018;23.670;2023-04-24T09:40:42;11.85;;;6.57;;
44480;SDS011;30184;42.018;23.670;2023-04-24T09:43:11;11.77;;;5.50;;
44480;SDS011;30184;42.018;23.670;2023-04-24T09:45:42;7.90;;;4.85;;
44480;SDS011;30184;42.018;23.670;2023-04-24T09:48:11;12.30;;;4.78;;
44480;SDS011;30184;42.018;23.670;2023-04-24T09:50:42;11.13;;;5.22;;
44480;SDS011;30184;42.018;23.670;2023-04-24T09:53:15;11.27;;;4.85;;
44480;SDS011;30184;42.018;23.670;2023-04-24T09:55:46;8.52;;;4.93;;
44480;SDS011;30184;42.018;23.670;2023-04-24T09:58:17;10.95;;;5.03;;
44480;SDS011;30184;42.018;23.670;2023-04-24T10:00:48;6.35;;;4.32;;
44480;SDS011;30184;42.018;23.670;2023-04-24T10:03:18;7.97;;;4.32;;
44480;SDS011;30184;42.018;23.670;2023-04-24T10:05:47;13.18;;;5.00;;
44480;SDS011;30184;42.018;23.670;2023-04-24T10:08:17;7.70;;;4.22;;
44480;SDS011;30184;42.018;23.670;2023-04-24T10:10:48;19.15;;;9.38;;
44480;SDS011;30184;42.018;23.670;2023-04-24T10:13:18;16.85;;;7.00;;
44480;SDS011;30184;42.018;23.670;2023-04-24T10:15:48;8.90;;;5.75;;
44480;SDS011;30184;42.018;23.670;2023-04-24T10:18:18;7.97;;;3.88;;
44480;SDS011;30184;42.018;23.670;2023-04-24T10:20:49;6.30;;;3.85;;
44480;SDS011;30184;42.018;23.670;2023-04-24T10:23:23;7.35;;;3.65;;
44480;SDS011;30184;42.018;23.670;2023-04-24T10:25:55;5.43;;;4.00;;
44480;SDS011;30184;42.018;23.670;2023-04-24T10:28:26;9.73;;;4.75;;
44480;SDS011;30184;42.018;23.670;2023-04-24T10:30:56;7.53;;;4.20;;
44480;SDS011;30184;42.018;23.670;2023-04-24T10:33:27;6.13;;;3.92;;
44480;SDS011;30184;42.018;23.670;2023-04-24T10:35:58;10.15;;;3.80;;
44480;SDS011;30184;42.018;23.670;2023-04-24T10:38:31;6.60;;;4.00;;
44480;SDS011;30184;42.018;23.670;2023-04-24T10:41:09;7.50;;;4.55;;
44480;SDS011;30184;42.018;23.670;2023-04-24T10:43:43;10.70;;;3.97;;
44480;SDS011;30184;42.018;23.670;2023-04-24T10:46:16;6.60;;;4.15;;
44480;SDS011;30184;42.018;23.670;2023-04-24T10:51:23;11.77;;;4.70;;
44480;SDS011;30184;42.018;23.670;2023-04-24T10:53:53;8.32;;;4.60;;
44480;SDS011;30184;42.018;23.670;2023-04-24T10:56:27;5.82;;;3.88;;
44480;SDS011;30184;42.018;23.670;2023-04-24T10:58:56;6.60;;;3.90;;
44480;SDS011;30184;42.018;23.670;2023-04-24T11:01:30;6.20;;;4.28;;
44480;SDS011;30184;42.018;23.670;2023-04-24T11:04:01;9.68;;;4.75;;
44480;SDS011;30184;42.018;23.670;2023-04-24T11:06:32;11.10;;;5.60;;
44480;SDS011;30184;42.018;23.670;2023-04-24T11:09:03;7.03;;;3.63;;
44480;SDS011;30184;42.018;23.670;2023-04-24T11:11:36;8.10;;;4.97;;
44480;SDS011;30184;42.018;23.670;2023-04-24T11:14:13;9.85;;;4.63;;
44480;SDS011;30184;42.018;23.670;2023-04-24T11:16:51;8.23;;;4.15;;
44480;SDS011;30184;42.018;23.670;2023-04-24T11:19:25;10.70;;;4.13;;
44480;SDS011;30184;42.018;23.670;2023-04-24T11:21:58;9.32;;;4.80;;
44480;SDS011;30184;42.018;23.670;2023-04-24T11:24:31;12.55;;;5.40;;
44480;SDS011;30184;42.018;23.670;2023-04-24T11:27:07;6.38;;;4.20;;
44480;SDS011;30184;42.018;23.670;2023-04-24T11:29:43;10.05;;;5.05;;
44480;SDS011;30184;42.018;23.670;2023-04-24T11:32:19;8.95;;;4.55;;
44480;SDS011;30184;42.018;23.670;2023-04-24T11:34:54;8.93;;;4.30;;
44480;SDS011;30184;42.018;23.670;2023-04-24T11:37:26;7.97;;;5.05;;
44480;SDS011;30184;42.018;23.670;2023-04-24T11:39:57;11.90;;;6.88;;
44480;SDS011;30184;42.018;23.670;2023-04-24T11:42:29;8.82;;;3.78;;
44480;SDS011;30184;42.018;23.670;2023-04-24T11:45:06;8.57;;;4.85;;
44480;SDS011;30184;42.018;23.670;2023-04-24T11:47:37;8.00;;;4.82;;
44480;SDS011;30184;42.018;23.670;2023-04-24T11:50:08;8.60;;;3.47;;
44480;SDS011;30184;42.018;23.670;2023-04-24T11:52:41;7.90;;;4.13;;
44480;SDS011;30184;42.018;23.670;2023-04-24T11:55:22;17.20;;;4.57;;
44480;SDS011;30184;42.018;23.670;2023-04-24T11:57:56;5.95;;;3.63;;
44480;SDS011;30184;42.018;23.670;2023-04-24T12:00:28;9.55;;;4.25;;
44480;SDS011;30184;42.018;23.670;2023-04-24T12:03:05;6.35;;;4.05;;
44480;SDS011;30184;42.018;23.670;2023-04-24T12:05:36;14.25;;;8.35;;
44480;SDS011;30184;42.018;23.670;2023-04-24T12:08:07;7.65;;;3.67;;
44480;SDS011;30184;42.018;23.670;2023-04-24T12:10:37;8.05;;;5.00;;
44480;SDS011;30184;42.018;23.670;2023-04-24T12:13:09;9.75;;;4.78;;
44480;SDS011;30184;42.018;23.670;2023-04-24T12:15:39;8.30;;;3.50;;
44480;SDS011;30184;42.018;23.670;2023-04-24T12:18:11;12.50;;;5.55;;
44480;SDS011;30184;42.018;23.670;2023-04-24T12:20:41;8.13;;;5.15;;
44480;SDS011;30184;42.018;23.670;2023-04-24T12:23:11;11.13;;;5.47;;
44480;SDS011;30184;42.018;23.670;2023-04-24T12:25:42;9.35;;;4.93;;
44480;SDS011;30184;42.018;23.670;2023-04-24T12:28:13;9.80;;;5.38;;
44480;SDS011;30184;42.018;23.670;2023-04-24T12:30:44;11.00;;;5.60;;
44480;SDS011;30184;42.018;23.670;2023-04-24T12:33:17;10.98;;;5.60;;
44480;SDS011;30184;42.018;23.670;2023-04-24T12:35:47;12.30;;;5.82;;
44480;SDS011;30184;42.018;23.670;2023-04-24T12:38:21;8.52;;;4.18;;
44480;SDS011;30184;42.018;23.670;2023-04-24T12:55:45;8.20;;;6.17;;
44480;SDS011;30184;42.018;23.670;2023-04-24T12:58:20;7.50;;;3.90;;
44480;SDS011;30184;42.018;23.670;2023-04-24T13:00:50;7.35;;;4.25;;
44480;SDS011;30184;42.018;23.670;2023-04-24T13:03:20;10.05;;;3.50;;
44480;SDS011;30184;42.018;23.670;2023-04-24T13:05:50;12.07;;;4.57;;
44480;SDS011;30184;42.018;23.670;2023-04-24T13:08:20;15.05;;;4.28;;
44480;SDS011;30184;42.018;23.670;2023-04-24T13:10:50;8.20;;;3.22;;
44480;SDS011;30184;42.018;23.670;2023-04-24T13:13:21;6.85;;;4.07;;
44480;SDS011;30184;42.018;23.670;2023-04-24T13:15:51;7.78;;;4.65;;
44480;SDS011;30184;42.018;23.670;2023-04-24T13:18:21;9.98;;;5.30;;
44480;SDS011;30184;42.018;23.670;2023-04-24T13:20:51;10.40;;;5.45;;
44480;SDS011;30184;42.018;23.670;2023-04-24T13:23:21;9.35;;;4.25;;
44480;SDS011;30184;42.018;23.670;2023-04-24T13:25:53;7.47;;;3.85;;
44480;SDS011;30184;42.018;23.670;2023-04-24T13:28:25;7.15;;;3.45;;
44480;SDS011;30184;42.018;23.670;2023-04-24T13:30:56;7.93;;;3.53;;
44480;SDS011;30184;42.018;23.670;2023-04-24T13:33:26;13.73;;;5.60;;
44480;SDS011;30184;42.018;23.670;2023-04-24T13:35:56;10.35;;;4.47;;
44480;SDS011;30184;42.018;23.670;2023-04-24T13:38:26;9.77;;;4.80;;
44480;SDS011;30184;42.018;23.670;2023-04-24T13:40:57;8.05;;;3.80;;
44480;SDS011;30184;42.018;23.670;2023-04-24T13:43:27;6.32;;;4.18;;
44480;SDS011;30184;42.018;23.670;2023-04-24T13:45:56;8.05;;;4.38;;
44480;SDS011;30184;42.018;23.670;2023-04-24T13:48:27;8.77;;;5.25;;
44480;SDS011;30184;42.018;23.670;2023-04-24T13:50:56;8.50;;;5.22;;
44480;SDS011;30184;42.018;23.670;2023-04-24T13:53:26;6.22;;;3.50;;
44480;SDS011;30184;42.018;23.670;2023-04-24T13:55:55;7.70;;;3.63;;
44480;SDS011;30184;42.018;23.670;2023-04-24T13:58:26;6.88;;;3.40;;
44480;SDS011;30184;42.018;23.670;2023-04-24T14:00:56;14.88;;;7.28;;
44480;SDS011;30184;42.018;23.670;2023-04-24T14:03:25;9.98;;;4.30;;
44480;SDS011;30184;42.018;23.670;2023-04-24T14:05:55;8.27;;;5.10;;
44480;SDS011;30184;42.018;23.670;2023-04-24T14:08:25;6.78;;;3.53;;
44480;SDS011;30184;42.018;23.670;2023-04-24T14:10:54;6.65;;;3.50;;
44480;SDS011;30184;42.018;23.670;2023-04-24T14:13:25;37.22;;;5.35;;
44480;SDS011;30184;42.018;23.670;2023-04-24T14:15:56;12.93;;;5.60;;
44480;SDS011;30184;42.018;23.670;2023-04-24T14:18:25;12.30;;;4.90;;
44480;SDS011;30184;42.018;23.670;2023-04-24T14:20:55;14.02;;;4.35;;
44480;SDS011;30184;42.018;23.670;2023-04-24T14:23:25;7.45;;;3.40;;
44480;SDS011;30184;42.018;23.670;2023-04-24T14:25:54;9.30;;;5.35;;
44480;SDS011;30184;42.018;23.670;2023-04-24T14:28:25;8.93;;;4.32;;
44480;SDS011;30184;42.018;23.670;2023-04-24T14:30:55;13.70;;;6.45;;
44480;SDS011;30184;42.018;23.670;2023-04-24T14:33:25;8.43;;;3.20;;
44480;SDS011;30184;42.018;23.670;2023-04-24T14:35:54;11.85;;;8.30;;
44480;SDS011;30184;42.018;23.670;2023-04-24T14:38:24;11.18;;;4.28;;
44480;SDS011;30184;42.018;23.670;2023-04-24T14:40:54;8.02;;;3.80;;
44480;SDS011;30184;42.018;23.670;2023-04-24T14:43:33;10.57;;;5.95;;
44480;SDS011;30184;42.018;23.670;2023-04-24T14:46:04;11.77;;;6.57;;
44480;SDS011;30184;42.018;23.670;2023-04-24T14:48:33;13.95;;;5.55;;
44480;SDS011;30184;42.018;23.670;2023-04-24T14:51:03;11.95;;;5.47;;
44480;SDS011;30184;42.018;23.670;2023-04-24T14:53:33;11.80;;;6.65;;
44480;SDS011;30184;42.018;23.670;2023-04-24T14:56:03;16.58;;;9.38;;
44480;SDS011;30184;42.018;23.670;2023-04-24T14:58:34;10.15;;;5.70;;